createdAt,value
2018-12-29T00:03:32.372Z,4.68
2018-12-29T00:08:38.174Z,4.64
2018-12-29T00:13:44.045Z,4.85
2018-12-29T00:18:49.897Z,4.72
2018-12-29T00:23:55.657Z,4.72
2018-12-29T00:29:01.558Z,5.07
2018-12-29T00:34:07.497Z,4.70
2018-12-29T00:39:11.339Z,4.98
2018-12-29T00:44:17.155Z,4.51
2018-12-29T00:49:24.102Z,4.98
2018-12-29T00:54:30.125Z,4.93
2018-12-29T00:59:39.157Z,4.94
2018-12-29T01:04:45.302Z,4.88
2018-12-29T01:09:51.082Z,4.97
2018-12-29T01:14:57.350Z,4.91
2018-12-29T01:20:04.339Z,5.05
2018-12-29T01:25:10.120Z,5.29
2018-12-29T01:30:16.240Z,5.29
2018-12-29T01:35:22.019Z,5.07
2018-12-29T01:40:27.820Z,4.95
2018-12-29T01:45:34.140Z,4.89
2018-12-29T01:50:40.046Z,5.10
2018-12-29T01:55:45.843Z,5.13
2018-12-29T02:00:51.690Z,5.07
2018-12-29T02:06:00.086Z,5.26
2018-12-29T02:11:05.998Z,5.09
2018-12-29T02:16:11.977Z,5.14
2018-12-29T02:21:17.795Z,5.08
2018-12-29T02:26:23.739Z,5.02
2018-12-29T02:31:29.610Z,4.93
2018-12-29T02:36:37.142Z,5.15
2018-12-29T02:41:42.926Z,5.09
2018-12-29T02:46:48.911Z,4.96
2018-12-29T02:51:54.684Z,4.99
2018-12-29T02:57:00.447Z,4.88
2018-12-29T03:02:07.484Z,4.88
2018-12-29T03:07:13.621Z,5.18
2018-12-29T03:12:19.408Z,5.24
2018-12-29T03:17:25.360Z,4.96
2018-12-29T03:22:31.377Z,4.95
2018-12-29T03:27:37.183Z,5.27
2018-12-29T03:32:43.043Z,5.01
2018-12-29T03:37:51.321Z,5.02
2018-12-29T03:42:57.199Z,5.21
2018-12-29T03:48:03.456Z,4.85
2018-12-29T03:53:09.311Z,5.07
2018-12-29T03:58:15.164Z,5.09
2018-12-29T04:03:21.447Z,5.19
2018-12-29T04:08:27.457Z,4.79
2018-12-29T04:13:33.638Z,4.87
2018-12-29T04:18:39.446Z,4.98
2018-12-29T04:23:45.383Z,4.98
2018-12-29T04:28:51.244Z,5.12
2018-12-29T04:33:57.116Z,5.15
2018-12-29T04:39:02.953Z,5.15
2018-12-29T04:44:08.767Z,5.12
2018-12-29T04:49:16.976Z,5.17
2018-12-29T04:54:23.179Z,4.93
2018-12-29T04:59:28.947Z,4.93
2018-12-29T05:04:36.917Z,4.89
2018-12-29T05:09:42.878Z,4.82
2018-12-29T05:14:48.707Z,4.66
2018-12-29T05:24:58.549Z,5.05
2018-12-29T05:30:06.135Z,5.23
2018-12-29T05:35:12.303Z,5.25
2018-12-29T05:40:18.171Z,5.12
2018-12-29T05:45:23.985Z,5.10
2018-12-29T05:50:30.416Z,5.29
2018-12-29T05:55:36.351Z,5.11
2018-12-29T06:00:43.031Z,4.96
2018-12-29T06:05:48.890Z,4.68
2018-12-29T06:10:54.711Z,4.78
2018-12-29T06:16:00.534Z,4.63
2018-12-29T06:21:06.374Z,4.97
2018-12-29T06:26:12.135Z,5.05
2018-12-29T06:31:17.941Z,4.82
2018-12-29T06:36:23.797Z,4.82
2018-12-29T06:41:29.712Z,4.83
2018-12-29T06:46:35.552Z,4.71
2018-12-29T06:51:42.024Z,4.71
2018-12-29T06:56:47.901Z,4.83
2018-12-29T07:01:53.720Z,4.89
2018-12-29T07:06:59.562Z,4.88
2018-12-29T07:12:05.596Z,4.78
2018-12-29T07:17:11.593Z,4.88
2018-12-29T07:22:17.842Z,4.75
2018-12-29T07:27:24.000Z,4.93
2018-12-29T07:32:30.078Z,4.76
2018-12-29T07:37:36.247Z,5.06
2018-12-29T07:42:42.054Z,5.06
2018-12-29T07:47:47.909Z,4.94
2018-12-29T07:52:56.363Z,4.94
2018-12-29T07:58:02.692Z,5.18
2018-12-29T08:03:08.587Z,5.03
2018-12-29T08:08:14.407Z,5.04
2018-12-29T08:13:20.365Z,5.04
2018-12-29T08:18:26.149Z,5.04
2018-12-29T08:23:32.070Z,4.83
2018-12-29T08:28:37.880Z,4.82
2018-12-29T08:33:44.008Z,4.62
2018-12-29T08:38:49.881Z,4.92
2018-12-29T08:43:55.817Z,4.72
2018-12-29T08:49:01.741Z,4.72
2018-12-29T08:54:09.960Z,5.01
2018-12-29T08:59:15.894Z,5.22
2018-12-29T09:04:21.718Z,5.42
2018-12-29T09:14:32.432Z,5.07
2018-12-29T09:19:38.229Z,5.44
2018-12-29T09:24:44.124Z,5.44
2018-12-29T09:29:49.919Z,5.48
2018-12-29T09:34:55.762Z,5.48
2018-12-29T09:40:01.923Z,5.15
2018-12-29T09:45:09.623Z,5.15
2018-12-29T09:50:15.456Z,5.46
2018-12-29T09:55:21.302Z,5.43
2018-12-29T10:00:35.667Z,5.56
2018-12-29T10:05:41.705Z,5.55
2018-12-29T10:10:47.584Z,5.63
2018-12-29T10:15:54.484Z,5.35
2018-12-29T10:21:00.321Z,5.26
2018-12-29T10:26:06.667Z,5.31
2018-12-29T10:31:12.840Z,4.98
2018-12-29T10:36:19.670Z,5.31
2018-12-29T10:41:25.931Z,5.31
2018-12-29T10:46:31.756Z,5.23
2018-12-29T10:51:37.577Z,5.39
2018-12-29T10:56:44.030Z,5.17
2018-12-29T11:04:51.778Z,5.40
2018-12-29T11:09:58.047Z,5.30
2018-12-29T11:15:04.833Z,5.64
2018-12-29T11:20:10.697Z,5.31
2018-12-29T11:25:16.495Z,5.13
2018-12-29T11:30:22.360Z,5.46
2018-12-29T11:35:28.889Z,5.46
2018-12-29T11:40:38.064Z,5.45
2018-12-29T11:45:44.470Z,5.56
2018-12-29T11:50:50.268Z,5.26
2018-12-29T11:55:56.109Z,5.67
2018-12-29T12:01:02.196Z,5.67
2018-12-29T12:06:08.120Z,5.85
2018-12-29T12:11:13.922Z,5.76
2018-12-29T12:16:20.695Z,6.12
2018-12-29T12:21:26.486Z,6.06
2018-12-29T12:27:36.801Z,5.84
2018-12-29T12:32:42.966Z,5.72
2018-12-29T12:37:48.891Z,5.62
2018-12-29T12:42:55.243Z,5.72
2018-12-29T12:48:05.193Z,5.90
2018-12-29T12:53:09.030Z,5.90
2018-12-29T12:58:15.549Z,5.96
2018-12-29T13:03:27.297Z,5.87
2018-12-29T13:08:33.434Z,5.87
2018-12-29T13:13:39.456Z,5.85
2018-12-29T13:18:46.515Z,5.44
2018-12-29T13:23:52.393Z,5.44
2018-12-29T13:28:58.280Z,5.65
2018-12-29T13:39:09.682Z,5.58
2018-12-29T13:44:17.640Z,5.59
2018-12-29T13:49:23.527Z,5.59
2018-12-29T13:54:29.768Z,5.73
2018-12-29T14:11:07.520Z,5.34
2018-12-29T14:16:15.068Z,5.56
2018-12-29T14:21:20.964Z,5.72
2018-12-29T14:26:26.899Z,5.75
2018-12-29T14:31:35.135Z,5.87
2018-12-29T14:36:42.529Z,5.86
2018-12-29T14:41:48.540Z,5.85
2018-12-29T14:46:54.432Z,5.52
2018-12-29T14:52:00.560Z,5.81
2018-12-29T14:57:06.534Z,5.81
2018-12-29T15:02:12.689Z,5.54
2018-12-29T15:07:19.081Z,5.68
2018-12-29T15:12:25.443Z,5.69
2018-12-29T15:17:34.559Z,5.56
2018-12-29T15:22:41.193Z,5.79
2018-12-29T15:27:47.180Z,5.81
2018-12-29T15:32:53.128Z,5.67
2018-12-29T15:37:59.263Z,5.69
2018-12-29T15:43:08.217Z,5.57
2018-12-29T15:48:17.522Z,5.42
2018-12-29T15:53:23.373Z,5.54
2018-12-29T15:58:29.309Z,5.62
2018-12-29T16:03:36.646Z,5.70
2018-12-29T16:08:43.203Z,5.48
2018-12-29T16:13:50.644Z,5.53
2018-12-29T16:18:58.874Z,5.71
2018-12-29T16:24:07.710Z,5.32
2018-12-29T16:29:15.205Z,5.52
2018-12-29T16:34:21.165Z,5.23
2018-12-29T16:39:27.532Z,5.26
2018-12-29T16:44:34.027Z,5.40
2018-12-29T16:49:40.133Z,5.46
2018-12-29T16:54:48.039Z,5.46
2018-12-29T16:59:54.181Z,5.42
2018-12-29T17:05:02.155Z,5.46
2018-12-29T17:10:09.751Z,5.32
2018-12-29T17:15:17.521Z,5.27
2018-12-29T17:20:23.450Z,5.06
2018-12-29T17:25:29.504Z,5.06
2018-12-29T17:30:35.724Z,5.12
2018-12-29T17:35:45.118Z,5.04
2018-12-29T17:40:52.321Z,5.27
2018-12-29T17:45:59.959Z,5.24
2018-12-29T17:51:11.272Z,5.58
2018-12-29T17:56:17.722Z,5.28
2018-12-29T18:01:26.020Z,5.37
2018-12-29T18:06:33.829Z,5.49
2018-12-29T18:11:41.420Z,5.40
2018-12-29T18:16:49.696Z,5.35
2018-12-29T18:21:56.052Z,5.48
2018-12-29T18:27:02.457Z,5.45
2018-12-29T18:32:09.993Z,5.66
2018-12-29T18:37:16.210Z,5.58
2018-12-29T18:42:26.141Z,5.65
2018-12-29T18:47:32.170Z,5.75
2018-12-29T18:52:39.638Z,5.49
2018-12-29T18:57:46.301Z,5.64
2018-12-29T19:02:55.575Z,5.62
2018-12-29T19:08:04.334Z,5.62
2018-12-29T19:13:13.267Z,5.35
2018-12-29T19:18:24.107Z,5.21
2018-12-29T19:23:30.137Z,5.10
2018-12-29T19:28:38.576Z,4.93
2018-12-29T19:33:44.763Z,4.88
2018-12-29T19:38:52.814Z,4.62
2018-12-29T19:44:04.598Z,4.51
2018-12-29T19:49:14.062Z,4.49
2018-12-29T19:54:21.292Z,4.33
2018-12-29T19:59:31.613Z,4.48
2018-12-29T20:04:40.624Z,4.34
2018-12-29T20:09:49.250Z,4.37
2018-12-29T20:14:56.296Z,4.55
2018-12-29T20:20:02.339Z,4.33
2018-12-29T20:25:10.160Z,4.39
2018-12-29T20:30:17.015Z,4.34
2018-12-29T20:35:25.915Z,4.45
2018-12-29T20:40:39.209Z,4.66
2018-12-29T20:45:47.039Z,4.51
2018-12-29T20:50:59.733Z,4.56
2018-12-29T20:56:09.877Z,4.60
2018-12-29T21:06:20.819Z,4.68
2018-12-29T21:11:37.517Z,4.74
2018-12-29T21:16:47.371Z,4.72
2018-12-29T21:21:53.492Z,4.72
2018-12-29T21:27:01.925Z,4.73
2018-12-29T21:32:10.900Z,4.68
2018-12-29T21:37:19.928Z,4.75
2018-12-29T21:42:26.259Z,4.64
2018-12-29T21:47:32.681Z,4.53
2018-12-29T21:52:38.633Z,4.71
2018-12-29T21:58:09.371Z,4.65
2018-12-29T22:03:17.356Z,4.81
2018-12-29T22:08:27.279Z,4.81
2018-12-29T22:13:33.750Z,4.60
2018-12-29T22:18:43.220Z,4.65
2018-12-29T22:23:51.394Z,4.90
2018-12-29T22:28:57.518Z,4.77
2018-12-29T22:34:05.184Z,4.94
2018-12-29T22:39:12.114Z,5.03
2018-12-29T22:44:18.522Z,5.08
2018-12-29T22:49:24.763Z,5.27
2018-12-29T22:54:32.641Z,5.03
2018-12-29T22:59:39.262Z,5.24
2018-12-29T23:04:45.706Z,5.22
2018-12-29T23:09:52.416Z,5.36
2018-12-29T23:14:58.709Z,5.29
2018-12-29T23:20:06.316Z,5.21
2018-12-29T23:25:13.511Z,5.31
2018-12-29T23:30:19.985Z,5.21
2018-12-29T23:35:30.726Z,5.35
2018-12-29T23:40:41.007Z,5.11
2018-12-29T23:45:47.996Z,4.91
